Friendship, North Carolina
Current Conditions -  °F | °C
As of 3:54 AM on Thursday 23 Oct 2014 (Local Time) from KGSO Reporting Station
Clear Clear  
Wind Chill: 45°   Ceiling: Unl
Heat Index: 45°   Visibility: 10mi
Dew Point: 38°   Wind: 3mph
Humidity: 76%   Direction: 300°WNW
Pressure: 30.03"   Gusts: NA
Location:  36.1197°N, 79.8944°W
Report Text: KGSO 230754Z 30003KT 10SM CLR 07/03 A3003 RMK AO2 SLP168 T00720033
Loading
Personal Weather Stations






























Interactive Weather Map
Tropical Storm Tracking
New forecast layout! Learn more

10-Day Weather Forecast

Advertisements
Track Severe Weather on mobile